Time,TemperatureF,DewpointF,PressureIn,WindDirection,WindDirectionDegrees,WindSpeedMPH,WindSpeedGustMPH,Humidity,HourlyPrecipIn,Conditions,Clouds,dailyrainin,SoftwareType,DateUTC
2013-02-01 00:00:00,41.6,31.4,30.24,NW,315,0.0,0.0,67,0.00,,,0.00,WUHU216HW,2013-02-01 05:00:00,
2013-02-01 00:01:00,41.6,31.4,30.24,NW,315,0.0,0.0,67,0.00,,,0.00,WUHU216HW,2013-02-01 05:01:00,
2013-02-01 00:06:00,41.2,31.1,30.24,NNW,338,0.0,0.0,67,0.00,,,0.00,WUHU216HW,2013-02-01 05:06:00,
2013-02-01 00:11:00,40.9,31.5,30.24,NNW,338,0.0,0.0,69,0.00,,,0.00,WUHU216HW,2013-02-01 05:11:00,
2013-02-01 00:16:00,40.7,31.7,30.24,NW,315,0.0,0.2,70,0.00,,,0.00,WUHU216HW,2013-02-01 05:16:00,
2013-02-01 00:21:00,40.5,31.5,30.24,NW,315,0.0,0.2,70,0.00,,,0.00,WUHU216HW,2013-02-01 05:21:00,
2013-02-01 00:26:00,40.5,31.2,30.24,WNW,293,0.0,0.2,69,0.00,,,0.00,WUHU216HW,2013-02-01 05:26:00,
2013-02-01 00:31:00,40.7,31.7,30.24,West,270,1.6,1.6,70,0.00,,,0.00,WUHU216HW,2013-02-01 05:31:00,
2013-02-01 00:36:00,40.7,31.7,30.23,WNW,293,0.0,1.6,70,0.00,,,0.00,WUHU216HW,2013-02-01 05:36:00,
2013-02-01 00:41:00,40.5,31.2,30.23,WNW,293,0.0,1.6,69,0.00,,,0.00,WUHU216HW,2013-02-01 05:41:00,
2013-02-01 00:46:00,40.5,31.2,30.23,WNW,293,0.0,0.0,69,0.00,,,0.00,WUHU216HW,2013-02-01 05:46:00,
2013-02-01 00:51:00,40.7,31.3,30.23,West,270,0.0,0.0,69,0.00,,,0.00,WUHU216HW,2013-02-01 05:51:00,
2013-02-01 00:56:00,40.7,31.3,30.23,West,270,0.0,0.0,69,0.00,,,0.00,WUHU216HW,2013-02-01 05:56:00,
2013-02-01 01:01:00,40.9,31.5,30.23,SE,135,0.0,0.2,69,0.00,,,0.00,WUHU216HW,2013-02-01 06:01:00,
2013-02-01 01:06:00,41.0,31.7,30.23,SE,135,0.0,0.2,69,0.00,,,0.00,WUHU216HW,2013-02-01 06:06:00,
2013-02-01 01:11:00,41.0,31.7,30.23,SE,135,0.0,0.0,69,0.00,,,0.00,WUHU216HW,2013-02-01 06:11:00,
2013-02-01 01:16:00,41.2,32.2,30.23,SE,135,0.0,0.0,70,0.00,,,0.00,WUHU216HW,2013-02-01 06:16:00,
2013-02-01 01:21:00,41.0,32.0,30.23,SE,135,0.0,0.0,70,0.00,,,0.00,WUHU216HW,2013-02-01 06:21:00,
2013-02-01 01:26:00,40.7,31.7,30.23,West,270,0.0,0.0,70,0.00,,,0.00,WUHU216HW,2013-02-01 06:26:00,
2013-02-01 01:31:00,40.3,31.3,30.23,West,270,0.0,0.2,70,0.00,,,0.00,WUHU216HW,2013-02-01 06:31:00,
2013-02-01 01:36:00,40.0,31.3,30.23,NW,315,0.0,0.2,71,0.00,,,0.00,WUHU216HW,2013-02-01 06:36:00,
2013-02-01 01:41:00,39.6,31.0,30.23,NNW,338,0.0,0.0,71,0.00,,,0.00,WUHU216HW,2013-02-01 06:41:00,
2013-02-01 01:46:00,39.4,30.8,30.23,NNW,338,0.0,0.0,71,0.00,,,0.00,WUHU216HW,2013-02-01 06:46:00,
2013-02-01 01:51:00,39.2,30.6,30.23,NNW,338,0.0,0.0,71,0.00,,,0.00,WUHU216HW,2013-02-01 06:51:00,
2013-02-01 01:56:00,39.2,30.6,30.24,NNW,338,0.0,0.0,71,0.00,,,0.00,WUHU216HW,2013-02-01 06:56:00,
2013-02-01 02:01:00,39.1,31.2,30.24,NW,315,0.0,0.0,73,0.00,,,0.00,WUHU216HW,2013-02-01 07:01:00,
2013-02-01 02:06:00,38.7,30.8,30.24,NNW,338,0.0,0.0,73,0.00,,,0.00,WUHU216HW,2013-02-01 07:06:00,
2013-02-01 02:11:00,38.5,31.0,30.24,NW,315,0.0,0.0,74,0.00,,,0.00,WUHU216HW,2013-02-01 07:11:00,
2013-02-01 02:16:00,38.5,31.0,30.24,NW,315,0.0,0.0,74,0.00,,,0.00,WUHU216HW,2013-02-01 07:16:00,
2013-02-01 02:21:00,38.5,30.6,30.24,North,0,0.0,0.0,73,0.00,,,0.00,WUHU216HW,2013-02-01 07:21:00,
2013-02-01 02:26:00,38.5,30.6,30.24,NNW,338,0.0,0.0,73,0.00,,,0.00,WUHU216HW,2013-02-01 07:26:00,
2013-02-01 02:31:00,38.5,30.6,30.24,NW,315,0.0,0.0,73,0.00,,,0.00,WUHU216HW,2013-02-01 07:31:00,
2013-02-01 02:36:00,38.5,30.2,30.24,NNW,338,0.0,0.0,72,0.00,,,0.00,WUHU216HW,2013-02-01 07:36:00,
2013-02-01 02:41:00,38.5,30.2,30.23,NNW,338,0.0,0.0,72,0.00,,,0.00,WUHU216HW,2013-02-01 07:41:00,
2013-02-01 02:46:00,38.5,30.2,30.23,NW,315,0.0,0.0,72,0.00,,,0.00,WUHU216HW,2013-02-01 07:46:00,
2013-02-01 02:51:00,38.5,30.0,30.23,NNW,338,0.0,0.0,71,0.00,,,0.00,WUHU216HW,2013-02-01 07:51:00,
2013-02-01 02:56:00,38.3,29.8,30.23,NNW,338,0.0,0.0,71,0.00,,,0.00,WUHU216HW,2013-02-01 07:56:00,
2013-02-01 03:01:00,38.3,29.8,30.23,NNW,338,0.0,0.0,71,0.00,,,0.00,WUHU216HW,2013-02-01 08:01:00,
2013-02-01 03:06:00,38.3,29.8,30.23,NNW,338,0.0,0.0,71,0.00,,,0.00,WUHU216HW,2013-02-01 08:06:00,
2013-02-01 03:11:00,38.3,30.1,30.24,NNW,338,0.0,0.0,72,0.00,,,0.00,WUHU216HW,2013-02-01 08:11:00,
2013-02-01 03:16:00,38.3,30.1,30.23,NNW,338,0.0,0.0,72,0.00,,,0.00,WUHU216HW,2013-02-01 08:16:00,
2013-02-01 03:21:00,38.5,30.2,30.24,NNW,338,0.0,0.0,72,0.00,,,0.00,WUHU216HW,2013-02-01 08:21:00,
2013-02-01 03:26:00,38.5,30.2,30.23,ESE,113,0.0,0.0,72,0.00,,,0.00,WUHU216HW,2013-02-01 08:26:00,
2013-02-01 03:31:00,38.7,30.4,30.24,ESE,113,0.0,0.0,72,0.00,,,0.00,WUHU216HW,2013-02-01 08:31:00,
2013-02-01 03:36:00,38.3,30.1,30.24,ESE,113,0.0,0.0,72,0.00,,,0.00,WUHU216HW,2013-02-01 08:36:00,
2013-02-01 03:41:00,38.0,29.8,30.24,ESE,113,0.0,0.0,72,0.00,,,0.00,WUHU216HW,2013-02-01 08:41:00,
2013-02-01 03:46:00,37.8,30.0,30.25,NW,315,0.0,0.0,73,0.00,,,0.00,WUHU216HW,2013-02-01 08:46:00,
2013-02-01 03:51:00,37.6,29.8,30.25,NW,315,0.0,0.0,73,0.00,,,0.00,WUHU216HW,2013-02-01 08:51:00,
2013-02-01 03:56:00,37.6,30.1,30.24,SE,135,0.0,0.0,74,0.00,,,0.00,WUHU216HW,2013-02-01 08:56:00,
2013-02-01 04:01:00,37.8,30.2,30.24,SE,135,0.0,1.1,74,0.00,,,0.00,WUHU216HW,2013-02-01 09:01:00,
2013-02-01 04:06:00,38.0,30.4,30.24,SE,135,0.0,1.1,74,0.00,,,0.00,WUHU216HW,2013-02-01 09:06:00,
2013-02-01 04:11:00,38.0,30.4,30.24,ESE,113,0.4,0.4,74,0.00,,,0.00,WUHU216HW,2013-02-01 09:11:00,
2013-02-01 04:16:00,38.0,30.4,30.24,SE,135,0.0,0.4,74,0.00,,,0.00,WUHU216HW,2013-02-01 09:16:00,
2013-02-01 04:21:00,38.0,30.4,30.24,SE,135,0.0,0.4,74,0.00,,,0.00,WUHU216HW,2013-02-01 09:21:00,
2013-02-01 04:26:00,37.8,30.2,30.24,SE,135,0.0,0.0,74,0.00,,,0.00,WUHU216HW,2013-02-01 09:26:00,
2013-02-01 04:31:00,37.8,30.2,30.24,SSW,203,0.0,0.0,74,0.00,,,0.00,WUHU216HW,2013-02-01 09:31:00,
2013-02-01 04:36:00,37.8,30.6,30.24,SSW,203,0.0,0.0,75,0.00,,,0.00,WUHU216HW,2013-02-01 09:36:00,
2013-02-01 04:41:00,37.8,30.6,30.24,SSW,203,0.0,0.0,75,0.00,,,0.00,WUHU216HW,2013-02-01 09:41:00,
2013-02-01 04:46:00,37.8,30.6,30.24,WSW,248,0.0,0.0,75,0.00,,,0.00,WUHU216HW,2013-02-01 09:46:00,
2013-02-01 04:51:00,37.6,30.1,30.25,WSW,248,0.0,0.0,74,0.00,,,0.00,WUHU216HW,2013-02-01 09:51:00,
2013-02-01 04:56:00,37.6,30.4,30.25,WSW,248,0.0,0.0,75,0.00,,,0.00,WUHU216HW,2013-02-01 09:56:00,
2013-02-01 05:01:00,37.6,30.4,30.25,WSW,248,0.0,0.0,75,0.00,,,0.00,WUHU216HW,2013-02-01 10:01:00,
2013-02-01 05:06:00,37.4,30.2,30.25,WSW,248,0.0,0.0,75,0.00,,,0.00,WUHU216HW,2013-02-01 10:06:00,
2013-02-01 05:11:00,37.4,30.2,30.25,WSW,248,0.0,0.0,75,0.00,,,0.00,WUHU216HW,2013-02-01 10:11:00,
2013-02-01 05:16:00,37.4,30.2,30.25,WSW,248,0.0,0.0,75,0.00,,,0.00,WUHU216HW,2013-02-01 10:16:00,
2013-02-01 05:21:00,37.4,30.2,30.25,WSW,248,0.0,0.0,75,0.00,,,0.00,WUHU216HW,2013-02-01 10:21:00,
2013-02-01 05:26:00,37.4,30.2,30.25,WSW,248,0.0,0.0,75,0.00,,,0.00,WUHU216HW,2013-02-01 10:26:00,
2013-02-01 05:31:00,37.4,30.2,30.25,WSW,248,0.0,0.0,75,0.00,,,0.00,WUHU216HW,2013-02-01 10:31:00,
2013-02-01 05:36:00,37.4,30.2,30.25,WSW,248,0.0,0.0,75,0.00,,,0.00,WUHU216HW,2013-02-01 10:36:00,
2013-02-01 05:41:00,37.4,30.2,30.25,WSW,248,0.0,0.0,75,0.00,,,0.00,WUHU216HW,2013-02-01 10:41:00,
2013-02-01 05:46:00,37.4,30.2,30.25,WSW,248,0.0,0.0,75,0.00,,,0.00,WUHU216HW,2013-02-01 10:46:00,
2013-02-01 05:51:00,37.3,30.1,30.25,WSW,248,0.0,0.0,75,0.00,,,0.00,WUHU216HW,2013-02-01 10:51:00,
2013-02-01 05:56:00,37.3,30.1,30.26,West,270,0.0,0.0,75,0.00,,,0.00,WUHU216HW,2013-02-01 10:56:00,
2013-02-01 06:01:00,37.1,29.9,30.26,WNW,293,0.0,0.4,75,0.00,,,0.00,WUHU216HW,2013-02-01 11:01:00,
2013-02-01 06:06:00,36.7,29.5,30.26,West,270,0.0,0.4,75,0.00,,,0.00,WUHU216HW,2013-02-01 11:06:00,
2013-02-01 06:11:00,36.7,29.5,30.26,WNW,293,0.0,0.0,75,0.00,,,0.00,WUHU216HW,2013-02-01 11:11:00,
2013-02-01 06:16:00,36.7,29.5,30.27,WNW,293,0.0,0.0,75,0.00,,,0.00,WUHU216HW,2013-02-01 11:16:00,
2013-02-01 06:21:00,36.7,29.5,30.26,WNW,293,0.0,0.0,75,0.00,,,0.00,WUHU216HW,2013-02-01 11:21:00,
2013-02-01 06:26:00,36.7,29.5,30.27,NW,315,0.0,0.0,75,0.00,,,0.00,WUHU216HW,2013-02-01 11:26:00,
2013-02-01 06:31:00,36.5,29.3,30.27,NW,315,0.2,0.4,75,0.00,,,0.00,WUHU216HW,2013-02-01 11:31:00,
2013-02-01 06:36:00,36.4,29.2,30.27,WNW,293,0.4,0.4,75,0.00,,,0.00,WUHU216HW,2013-02-01 11:36:00,
2013-02-01 06:41:00,36.2,29.0,30.28,West,270,0.0,0.4,75,0.00,,,0.00,WUHU216HW,2013-02-01 11:41:00,
2013-02-01 06:46:00,36.2,29.0,30.27,WNW,293,0.0,0.4,75,0.00,,,0.00,WUHU216HW,2013-02-01 11:46:00,
2013-02-01 06:51:00,36.0,28.4,30.28,WNW,293,0.2,0.7,74,0.00,,,0.00,WUHU216HW,2013-02-01 11:51:00,
2013-02-01 06:56:00,36.0,28.8,30.28,NNW,338,0.2,0.7,75,0.00,,,0.00,WUHU216HW,2013-02-01 11:56:00,
2013-02-01 07:01:00,36.0,28.8,30.28,NW,315,0.0,0.2,75,0.00,,,0.00,WUHU216HW,2013-02-01 12:01:00,
2013-02-01 07:06:00,36.0,28.4,30.28,NW,315,0.0,0.4,74,0.00,,,0.00,WUHU216HW,2013-02-01 12:06:00,
2013-02-01 07:11:00,35.8,28.3,30.28,WNW,293,0.0,0.4,74,0.00,,,0.00,WUHU216HW,2013-02-01 12:11:00,
2013-02-01 07:16:00,35.8,28.3,30.28,NW,315,0.0,0.2,74,0.00,,,0.00,WUHU216HW,2013-02-01 12:16:00,
2013-02-01 07:21:00,35.6,28.1,30.29,NNW,338,0.0,0.0,74,0.00,,,0.00,WUHU216HW,2013-02-01 12:21:00,
2013-02-01 07:26:00,35.6,28.1,30.29,NNW,338,0.0,0.0,74,0.00,,,0.00,WUHU216HW,2013-02-01 12:26:00,
2013-02-01 07:31:00,35.5,27.9,30.29,NW,315,0.0,0.0,74,0.00,,,0.00,WUHU216HW,2013-02-01 12:31:00,
2013-02-01 07:36:00,35.6,28.1,30.29,NW,315,0.0,0.0,74,0.00,,,0.00,WUHU216HW,2013-02-01 12:36:00,
2013-02-01 07:41:00,36.4,29.2,30.29,NNW,338,0.0,0.0,75,0.00,,,0.00,WUHU216HW,2013-02-01 12:41:00,
2013-02-01 07:46:00,37.6,30.8,30.29,NNW,338,0.0,0.2,76,0.00,,,0.00,WUHU216HW,2013-02-01 12:46:00,
2013-02-01 07:51:00,38.9,32.0,30.29,WNW,293,0.0,0.2,76,0.00,,,0.00,WUHU216HW,2013-02-01 12:51:00,
2013-02-01 07:56:00,40.0,32.7,30.29,NW,315,0.0,0.7,75,0.00,,,0.00,WUHU216HW,2013-02-01 12:56:00,
2013-02-01 08:01:00,41.0,33.3,30.29,NNW,338,0.0,0.7,74,0.00,,,0.00,WUHU216HW,2013-02-01 13:01:00,
2013-02-01 08:06:00,41.8,33.4,30.29,NNW,338,0.0,0.7,72,0.00,,,0.00,WUHU216HW,2013-02-01 13:06:00,
2013-02-01 08:11:00,42.3,33.7,30.30,NNW,338,0.0,1.1,71,0.00,,,0.00,WUHU216HW,2013-02-01 13:11:00,
2013-02-01 08:16:00,42.7,33.7,30.30,WSW,248,0.4,1.6,70,0.00,,,0.00,WUHU216HW,2013-02-01 13:16:00,
2013-02-01 08:21:00,43.2,34.2,30.30,WNW,293,0.2,1.6,70,0.00,,,0.00,WUHU216HW,2013-02-01 13:21:00,
2013-02-01 08:26:00,43.6,34.1,30.30,NNW,338,0.0,1.3,69,0.00,,,0.00,WUHU216HW,2013-02-01 13:26:00,
2013-02-01 08:31:00,44.3,34.4,30.31,NNW,338,2.0,2.0,68,0.00,,,0.00,WUHU216HW,2013-02-01 13:31:00,
2013-02-01 08:36:00,45.2,34.1,30.31,NNW,338,0.4,2.2,65,0.00,,,0.00,WUHU216HW,2013-02-01 13:36:00,
2013-02-01 08:41:00,46.1,34.6,30.30,NW,315,0.7,2.2,64,0.00,,,0.00,WUHU216HW,2013-02-01 13:41:00,
2013-02-01 08:46:00,47.2,34.4,30.31,NNW,338,0.7,2.2,61,0.00,,,0.00,WUHU216HW,2013-02-01 13:46:00,
2013-02-01 08:51:00,48.4,34.8,30.30,West,270,0.4,3.4,59,0.00,,,0.00,WUHU216HW,2013-02-01 13:51:00,
2013-02-01 08:56:00,49.0,35.7,30.30,North,0,0.2,3.4,60,0.00,,,0.00,WUHU216HW,2013-02-01 13:56:00,
2013-02-01 09:01:00,49.7,35.5,30.31,WNW,293,2.5,4.0,58,0.00,,,0.00,WUHU216HW,2013-02-01 14:01:00,
2013-02-01 09:06:00,50.2,35.1,30.31,North,0,1.8,4.0,56,0.00,,,0.00,WUHU216HW,2013-02-01 14:06:00,
2013-02-01 09:11:00,50.8,33.3,30.30,NW,315,2.5,3.4,51,0.00,,,0.00,WUHU216HW,2013-02-01 14:11:00,
2013-02-01 09:16:00,51.5,33.5,30.30,NW,315,1.1,3.4,50,0.00,,,0.00,WUHU216HW,2013-02-01 14:16:00,
2013-02-01 09:21:00,52.0,34.0,30.31,WSW,248,1.3,2.9,50,0.00,,,0.00,WUHU216HW,2013-02-01 14:21:00,
2013-02-01 09:26:00,52.4,34.7,30.31,South,180,0.9,4.3,51,0.00,,,0.00,WUHU216HW,2013-02-01 14:26:00,
2013-02-01 09:31:00,52.9,34.3,30.31,NNW,338,0.4,4.3,49,0.00,,,0.00,WUHU216HW,2013-02-01 14:31:00,
2013-02-01 09:36:00,53.3,33.5,30.31,NW,315,1.1,4.0,47,0.00,,,0.00,WUHU216HW,2013-02-01 14:36:00,
2013-02-01 09:41:00,53.6,33.8,30.31,WNW,293,0.7,6.3,47,0.00,,,0.00,WUHU216HW,2013-02-01 14:41:00,
2013-02-01 09:46:00,54.2,33.8,30.31,West,270,0.9,6.3,46,0.00,,,0.00,WUHU216HW,2013-02-01 14:46:00,
2013-02-01 09:51:00,54.4,33.8,30.31,NNW,338,1.8,5.4,46,0.00,,,0.00,WUHU216HW,2013-02-01 14:51:00,
2013-02-01 09:56:00,54.9,33.9,30.31,NW,315,3.6,5.4,45,0.00,,,0.00,WUHU216HW,2013-02-01 14:56:00,
2013-02-01 10:01:00,55.3,34.1,30.31,WNW,293,0.7,5.6,45,0.00,,,0.00,WUHU216HW,2013-02-01 15:01:00,
2013-02-01 10:06:00,55.8,34.7,30.31,West,270,2.5,5.6,45,0.00,,,0.00,WUHU216HW,2013-02-01 15:06:00,
2013-02-01 10:11:00,56.2,34.4,30.31,NW,315,0.7,4.5,44,0.00,,,0.00,WUHU216HW,2013-02-01 15:11:00,
2013-02-01 10:16:00,56.9,34.5,30.31,NW,315,0.4,4.5,43,0.00,,,0.00,WUHU216HW,2013-02-01 15:16:00,
2013-02-01 10:21:00,57.8,35.9,30.31,North,0,0.7,4.0,44,0.00,,,0.00,WUHU216HW,2013-02-01 15:21:00,
2013-02-01 10:26:00,58.3,35.8,30.31,SE,135,1.1,6.0,43,0.00,,,0.00,WUHU216HW,2013-02-01 15:26:00,
2013-02-01 10:31:00,58.5,36.0,30.32,NW,315,2.9,6.0,43,0.00,,,0.00,WUHU216HW,2013-02-01 15:31:00,
2013-02-01 10:36:00,58.9,35.2,30.31,WSW,248,2.7,4.9,41,0.00,,,0.00,WUHU216HW,2013-02-01 15:36:00,
2013-02-01 10:41:00,59.2,34.2,30.31,NNW,338,1.8,4.7,39,0.00,,,0.00,WUHU216HW,2013-02-01 15:41:00,
2013-02-01 10:46:00,59.6,34.6,30.31,NNW,338,2.0,4.7,39,0.00,,,0.00,WUHU216HW,2013-02-01 15:46:00,
2013-02-01 10:51:00,60.1,34.3,30.31,WNW,293,2.2,9.4,38,0.00,,,0.00,WUHU216HW,2013-02-01 15:51:00,
2013-02-01 10:56:00,60.5,33.9,30.30,ESE,113,1.3,10.1,37,0.00,,,0.00,WUHU216HW,2013-02-01 15:56:00,
2013-02-01 11:01:00,60.7,36.2,30.30,South,180,1.1,10.1,40,0.00,,,0.00,WUHU216HW,2013-02-01 16:01:00,
2013-02-01 11:06:00,60.5,34.6,30.30,NW,315,3.4,3.4,38,0.00,,,0.00,WUHU216HW,2013-02-01 16:06:00,
2013-02-01 11:11:00,61.0,35.8,30.30,WSW,248,1.8,3.4,39,0.00,,,0.00,WUHU216HW,2013-02-01 16:11:00,
2013-02-01 11:16:00,61.6,37.0,30.30,West,270,3.1,3.4,40,0.00,,,0.00,WUHU216HW,2013-02-01 16:16:00,
2013-02-01 11:21:00,62.3,36.2,30.29,NW,315,0.9,6.5,38,0.00,,,0.00,WUHU216HW,2013-02-01 16:21:00,
2013-02-01 11:26:00,62.8,36.7,30.29,NW,315,1.1,6.5,38,0.00,,,0.00,WUHU216HW,2013-02-01 16:26:00,
2013-02-01 11:31:00,63.4,35.7,30.29,NNW,338,0.4,4.7,36,0.00,,,0.00,WUHU216HW,2013-02-01 16:31:00,
2013-02-01 11:36:00,64.1,35.6,30.29,SSW,203,2.0,4.7,35,0.00,,,0.00,WUHU216HW,2013-02-01 16:36:00,
2013-02-01 11:41:00,64.4,36.0,30.29,West,270,2.9,4.3,35,0.00,,,0.00,WUHU216HW,2013-02-01 16:41:00,
2013-02-01 11:46:00,64.4,35.3,30.29,North,0,2.7,5.1,34,0.00,,,0.00,WUHU216HW,2013-02-01 16:46:00,
2013-02-01 11:51:00,64.4,35.3,30.29,NNE,23,1.6,5.1,34,0.00,,,0.00,WUHU216HW,2013-02-01 16:51:00,
2013-02-01 11:56:00,64.8,37.1,30.29,North,0,0.7,5.1,36,0.00,,,0.00,WUHU216HW,2013-02-01 16:56:00,
2013-02-01 12:01:00,65.2,35.9,30.29,West,270,2.7,6.3,34,0.00,,,0.00,WUHU216HW,2013-02-01 17:01:00,
2013-02-01 12:06:00,65.5,34.8,30.29,NE,45,1.1,6.3,32,0.00,,,0.00,WUHU216HW,2013-02-01 17:06:00,
2013-02-01 12:11:00,65.2,35.9,30.29,NW,315,3.1,5.1,34,0.00,,,0.00,WUHU216HW,2013-02-01 17:11:00,
2013-02-01 12:16:00,65.5,35.6,30.29,NW,315,1.1,5.1,33,0.00,,,0.00,WUHU216HW,2013-02-01 17:16:00,
2013-02-01 12:21:00,65.7,36.5,30.28,NNE,23,1.8,4.0,34,0.00,,,0.00,WUHU216HW,2013-02-01 17:21:00,
2013-02-01 12:26:00,65.9,36.5,30.28,NW,315,0.9,4.0,34,0.00,,,0.00,WUHU216HW,2013-02-01 17:26:00,
2013-02-01 12:31:00,65.9,35.8,30.28,West,270,5.4,5.4,33,0.00,,,0.00,WUHU216HW,2013-02-01 17:31:00,
2013-02-01 12:36:00,65.9,37.3,30.28,NW,315,2.7,5.4,35,0.00,,,0.00,WUHU216HW,2013-02-01 17:36:00,
2013-02-01 12:41:00,66.4,37.1,30.28,SSW,203,0.4,5.4,34,0.00,,,0.00,WUHU216HW,2013-02-01 17:41:00,
2013-02-01 12:46:00,67.1,36.9,30.28,NNW,338,5.4,5.8,33,0.00,,,0.00,WUHU216HW,2013-02-01 17:46:00,
2013-02-01 12:51:00,67.7,36.6,30.27,SW,225,1.1,7.8,32,0.00,,,0.00,WUHU216HW,2013-02-01 17:51:00,
2013-02-01 12:56:00,67.3,36.4,30.27,North,0,1.8,7.8,32,0.00,,,0.00,WUHU216HW,2013-02-01 17:56:00,
2013-02-01 13:01:00,67.0,35.3,30.26,NNW,338,0.4,5.6,31,0.00,,,0.00,WUHU216HW,2013-02-01 18:01:00,
2013-02-01 13:06:00,66.6,36.5,30.26,NNW,338,3.8,7.8,33,0.00,,,0.00,WUHU216HW,2013-02-01 18:06:00,
2013-02-01 13:11:00,66.4,37.1,30.26,NNW,338,1.3,7.8,34,0.00,,,0.00,WUHU216HW,2013-02-01 18:11:00,
2013-02-01 13:16:00,67.0,38.3,30.26,SW,225,2.2,6.0,35,0.00,,,0.00,WUHU216HW,2013-02-01 18:16:00,
2013-02-01 13:21:00,67.1,37.6,30.25,WSW,248,0.2,6.0,34,0.00,,,0.00,WUHU216HW,2013-02-01 18:21:00,
2013-02-01 13:26:00,67.1,38.4,30.25,WNW,293,0.7,4.0,35,0.00,,,0.00,WUHU216HW,2013-02-01 18:26:00,
2013-02-01 13:31:00,66.6,35.7,30.25,NNW,338,3.4,4.9,32,0.00,,,0.00,WUHU216HW,2013-02-01 18:31:00,
2013-02-01 13:36:00,66.4,37.1,30.25,WNW,293,0.9,4.9,34,0.00,,,0.00,WUHU216HW,2013-02-01 18:36:00,
2013-02-01 13:41:00,66.4,37.1,30.24,NW,315,2.2,5.1,34,0.00,,,0.00,WUHU216HW,2013-02-01 18:41:00,
2013-02-01 13:46:00,66.2,36.9,30.24,WSW,248,1.6,5.1,34,0.00,,,0.00,WUHU216HW,2013-02-01 18:46:00,
2013-02-01 13:51:00,66.2,37.6,30.24,NNW,338,0.2,3.8,35,0.00,,,0.00,WUHU216HW,2013-02-01 18:51:00,
2013-02-01 13:56:00,66.4,37.8,30.24,WNW,293,0.9,4.7,35,0.00,,,0.00,WUHU216HW,2013-02-01 18:56:00,
2013-02-01 14:01:00,66.2,37.6,30.24,WNW,293,2.0,4.7,35,0.00,,,0.00,WUHU216HW,2013-02-01 19:01:00,
2013-02-01 14:06:00,65.9,36.5,30.24,WNW,293,2.5,7.4,34,0.00,,,0.00,WUHU216HW,2013-02-01 19:06:00,
2013-02-01 14:11:00,65.5,35.6,30.23,West,270,1.1,7.4,33,0.00,,,0.00,WUHU216HW,2013-02-01 19:11:00,
2013-02-01 14:16:00,65.3,37.5,30.24,WSW,248,0.4,5.4,36,0.00,,,0.00,WUHU216HW,2013-02-01 19:16:00,
2013-02-01 14:21:00,65.2,35.2,30.23,SSW,203,2.5,5.4,33,0.00,,,0.00,WUHU216HW,2013-02-01 19:21:00,
2013-02-01 14:26:00,64.8,37.1,30.24,North,0,2.7,4.5,36,0.00,,,0.00,WUHU216HW,2013-02-01 19:26:00,
2013-02-01 14:31:00,64.8,35.7,30.23,West,270,0.4,2.9,34,0.00,,,0.00,WUHU216HW,2013-02-01 19:31:00,
2013-02-01 14:36:00,64.6,35.5,30.23,WSW,248,0.4,5.4,34,0.00,,,0.00,WUHU216HW,2013-02-01 19:36:00,
2013-02-01 14:41:00,64.4,35.3,30.24,WSW,248,0.9,5.4,34,0.00,,,0.00,WUHU216HW,2013-02-01 19:41:00,
2013-02-01 14:46:00,64.4,35.3,30.24,NNW,338,1.6,5.4,34,0.00,,,0.00,WUHU216HW,2013-02-01 19:46:00,
2013-02-01 14:51:00,64.1,34.9,30.24,NNE,23,2.9,5.4,34,0.00,,,0.00,WUHU216HW,2013-02-01 19:51:00,
2013-02-01 14:56:00,64.1,34.9,30.24,WNW,293,0.4,4.7,34,0.00,,,0.00,WUHU216HW,2013-02-01 19:56:00,
2013-02-01 15:01:00,63.9,36.3,30.23,NW,315,0.4,4.7,36,0.00,,,0.00,WUHU216HW,2013-02-01 20:01:00,
2013-02-01 15:06:00,64.1,36.4,30.23,NNW,338,2.2,4.0,36,0.00,,,0.00,WUHU216HW,2013-02-01 20:06:00,
2013-02-01 15:11:00,64.1,37.1,30.23,WSW,248,0.4,3.4,37,0.00,,,0.00,WUHU216HW,2013-02-01 20:11:00,
2013-02-01 15:16:00,64.1,37.1,30.23,NW,315,0.0,3.4,37,0.00,,,0.00,WUHU216HW,2013-02-01 20:16:00,
2013-02-01 15:21:00,64.1,35.6,30.24,NNW,338,0.4,3.1,35,0.00,,,0.00,WUHU216HW,2013-02-01 20:21:00,
2013-02-01 15:26:00,63.9,34.8,30.23,NNW,338,4.3,8.1,34,0.00,,,0.00,WUHU216HW,2013-02-01 20:26:00,
2013-02-01 15:31:00,63.7,36.1,30.23,North,0,2.0,8.1,36,0.00,,,0.00,WUHU216HW,2013-02-01 20:31:00,
2013-02-01 15:36:00,63.5,35.2,30.23,NNW,338,1.1,4.7,35,0.00,,,0.00,WUHU216HW,2013-02-01 20:36:00,
2013-02-01 15:41:00,63.4,36.5,30.23,North,0,1.1,3.8,37,0.00,,,0.00,WUHU216HW,2013-02-01 20:41:00,
2013-02-01 15:46:00,63.4,36.5,30.23,NW,315,1.1,3.1,37,0.00,,,0.00,WUHU216HW,2013-02-01 20:46:00,
2013-02-01 15:51:00,63.4,36.5,30.23,NW,315,1.6,4.7,37,0.00,,,0.00,WUHU216HW,2013-02-01 20:51:00,
2013-02-01 15:56:00,63.2,36.3,30.23,North,0,0.2,4.7,37,0.00,,,0.00,WUHU216HW,2013-02-01 20:56:00,
2013-02-01 16:01:00,63.0,36.2,30.23,NW,315,1.1,4.0,37,0.00,,,0.00,WUHU216HW,2013-02-01 21:01:00,
2013-02-01 16:06:00,63.0,36.9,30.23,WNW,293,0.2,3.6,38,0.00,,,0.00,WUHU216HW,2013-02-01 21:06:00,
2013-02-01 16:11:00,63.0,36.9,30.23,NW,315,0.9,4.0,38,0.00,,,0.00,WUHU216HW,2013-02-01 21:11:00,
2013-02-01 16:16:00,62.8,36.0,30.23,West,270,0.4,4.0,37,0.00,,,0.00,WUHU216HW,2013-02-01 21:16:00,
2013-02-01 16:21:00,63.0,35.5,30.23,NNW,338,1.8,3.4,36,0.00,,,0.00,WUHU216HW,2013-02-01 21:21:00,
2013-02-01 16:26:00,62.8,34.6,30.23,NNW,338,0.4,4.5,35,0.00,,,0.00,WUHU216HW,2013-02-01 21:26:00,
2013-02-01 16:31:00,62.6,35.8,30.24,WSW,248,0.7,4.5,37,0.00,,,0.00,WUHU216HW,2013-02-01 21:31:00,
2013-02-01 16:36:00,62.8,36.0,30.24,WSW,248,1.3,3.8,37,0.00,,,0.00,WUHU216HW,2013-02-01 21:36:00,
2013-02-01 16:41:00,62.8,36.0,30.24,NW,315,0.7,3.8,37,0.00,,,0.00,WUHU216HW,2013-02-01 21:41:00,
2013-02-01 16:47:00,62.6,36.5,30.24,NNW,338,0.2,2.5,38,0.00,,,0.00,WUHU216HW,2013-02-01 21:47:00,
2013-02-01 16:52:00,62.6,36.5,30.24,NW,315,1.1,2.7,38,0.00,,,0.00,WUHU216HW,2013-02-01 21:52:00,
2013-02-01 16:57:00,62.5,36.4,30.24,North,0,0.7,2.9,38,0.00,,,0.00,WUHU216HW,2013-02-01 21:57:00,
2013-02-01 17:02:00,62.3,36.2,30.25,NW,315,1.1,2.9,38,0.00,,,0.00,WUHU216HW,2013-02-01 22:02:00,
2013-02-01 17:07:00,62.1,35.4,30.25,North,0,1.1,3.6,37,0.00,,,0.00,WUHU216HW,2013-02-01 22:07:00,
2013-02-01 17:12:00,61.7,35.7,30.25,NNW,338,3.1,3.6,38,0.00,,,0.00,WUHU216HW,2013-02-01 22:12:00,
2013-02-01 17:17:00,61.4,34.7,30.25,NNW,338,2.9,4.0,37,0.00,,,0.00,WUHU216HW,2013-02-01 22:17:00,
2013-02-01 17:22:00,61.0,35.1,30.25,NW,315,1.1,4.0,38,0.00,,,0.00,WUHU216HW,2013-02-01 22:22:00,
2013-02-01 17:27:00,60.8,34.9,30.25,North,0,0.4,3.8,38,0.00,,,0.00,WUHU216HW,2013-02-01 22:27:00,
2013-02-01 17:32:00,60.3,34.5,30.25,NW,315,1.1,4.3,38,0.00,,,0.00,WUHU216HW,2013-02-01 22:32:00,
2013-02-01 17:37:00,59.9,34.1,30.25,West,270,0.4,4.3,38,0.00,,,0.00,WUHU216HW,2013-02-01 22:37:00,
2013-02-01 17:42:00,59.6,34.6,30.25,WNW,293,1.6,3.4,39,0.00,,,0.00,WUHU216HW,2013-02-01 22:42:00,
2013-02-01 17:47:00,59.4,35.1,30.25,NNW,338,0.4,2.5,40,0.00,,,0.00,WUHU216HW,2013-02-01 22:47:00,
2013-02-01 17:52:00,58.9,35.2,30.25,NNW,338,0.2,2.5,41,0.00,,,0.00,WUHU216HW,2013-02-01 22:52:00,
2013-02-01 17:57:00,58.7,35.0,30.26,NNW,338,1.1,2.5,41,0.00,,,0.00,WUHU216HW,2013-02-01 22:57:00,
2013-02-01 18:02:00,58.3,35.3,30.25,NW,315,0.2,2.5,42,0.00,,,0.00,WUHU216HW,2013-02-01 23:02:00,
2013-02-01 18:07:00,58.0,35.5,30.25,NE,45,0.4,2.0,43,0.00,,,0.00,WUHU216HW,2013-02-01 23:07:00,
2013-02-01 18:12:00,57.4,35.0,30.25,WNW,293,0.0,2.0,43,0.00,,,0.00,WUHU216HW,2013-02-01 23:12:00,
2013-02-01 18:17:00,57.2,34.8,30.26,NW,315,0.0,1.8,43,0.00,,,0.00,WUHU216HW,2013-02-01 23:17:00,
2013-02-01 18:22:00,56.9,35.1,30.26,NW,315,0.0,0.9,44,0.00,,,0.00,WUHU216HW,2013-02-01 23:22:00,
2013-02-01 18:27:00,56.5,34.7,30.26,NW,315,0.0,0.9,44,0.00,,,0.00,WUHU216HW,2013-02-01 23:27:00,
2013-02-01 18:32:00,56.0,34.8,30.26,NW,315,0.0,0.4,45,0.00,,,0.00,WUHU216HW,2013-02-01 23:32:00,
2013-02-01 18:37:00,55.4,34.8,30.26,NW,315,0.0,0.2,46,0.00,,,0.00,WUHU216HW,2013-02-01 23:37:00,
2013-02-01 18:42:00,55.3,34.7,30.26,NW,315,0.0,0.2,46,0.00,,,0.00,WUHU216HW,2013-02-01 23:42:00,
2013-02-01 18:47:00,54.7,34.7,30.26,East,90,0.0,0.4,47,0.00,,,0.00,WUHU216HW,2013-02-01 23:47:00,
2013-02-01 18:52:00,54.2,34.8,30.27,East,90,0.2,0.4,48,0.00,,,0.00,WUHU216HW,2013-02-01 23:52:00,
2013-02-01 18:57:00,53.6,34.9,30.26,East,90,0.0,0.2,49,0.00,,,0.00,WUHU216HW,2013-02-01 23:57:00,
2013-02-01 19:02:00,52.7,34.7,30.27,East,90,0.0,0.2,50,0.00,,,0.00,WUHU216HW,2013-02-02 00:02:00,
2013-02-01 19:07:00,52.6,34.9,30.27,East,90,0.0,0.0,51,0.00,,,0.00,WUHU216HW,2013-02-02 00:07:00,
2013-02-01 19:12:00,52.6,35.4,30.27,ESE,113,0.4,0.4,52,0.00,,,0.00,WUHU216HW,2013-02-02 00:12:00,
2013-02-01 19:17:00,52.2,36.0,30.27,ESE,113,0.0,0.4,54,0.00,,,0.00,WUHU216HW,2013-02-02 00:17:00,
2013-02-01 19:22:00,51.5,35.3,30.27,North,0,0.0,0.4,54,0.00,,,0.00,WUHU216HW,2013-02-02 00:22:00,
2013-02-01 19:27:00,50.6,35.4,30.28,North,0,0.0,0.0,56,0.00,,,0.00,WUHU216HW,2013-02-02 00:27:00,
2013-02-01 19:32:00,50.0,34.9,30.28,North,0,0.0,0.0,56,0.00,,,0.00,WUHU216HW,2013-02-02 00:32:00,
2013-02-01 19:37:00,50.2,35.1,30.28,NW,315,0.0,0.4,56,0.00,,,0.00,WUHU216HW,2013-02-02 00:37:00,
2013-02-01 19:42:00,50.2,35.1,30.28,WSW,248,0.0,0.4,56,0.00,,,0.00,WUHU216HW,2013-02-02 00:42:00,
2013-02-01 19:47:00,50.4,35.7,30.28,ESE,113,0.0,0.4,57,0.00,,,0.00,WUHU216HW,2013-02-02 00:47:00,
2013-02-01 19:52:00,50.2,36.0,30.28,NNW,338,0.0,0.4,58,0.00,,,0.00,WUHU216HW,2013-02-02 00:52:00,
2013-02-01 19:57:00,49.3,35.7,30.28,NNW,338,0.0,0.0,59,0.00,,,0.00,WUHU216HW,2013-02-02 00:57:00,
2013-02-01 20:02:00,49.0,35.3,30.29,NNW,338,0.0,0.0,59,0.00,,,0.00,WUHU216HW,2013-02-02 01:02:00,
2013-02-01 20:07:00,48.6,34.9,30.29,NNW,338,0.0,0.0,59,0.00,,,0.00,WUHU216HW,2013-02-02 01:07:00,
2013-02-01 20:12:00,48.8,35.1,30.29,NNW,338,0.0,0.0,59,0.00,,,0.00,WUHU216HW,2013-02-02 01:12:00,
2013-02-01 20:17:00,49.0,35.7,30.29,NNW,338,0.0,0.0,60,0.00,,,0.00,WUHU216HW,2013-02-02 01:17:00,
2013-02-01 20:22:00,49.0,35.7,30.29,North,0,0.0,0.0,60,0.00,,,0.00,WUHU216HW,2013-02-02 01:22:00,
2013-02-01 20:27:00,48.8,36.0,30.29,North,0,0.0,0.0,61,0.00,,,0.00,WUHU216HW,2013-02-02 01:27:00,
2013-02-01 20:32:00,47.9,35.5,30.29,North,0,0.0,0.0,62,0.00,,,0.00,WUHU216HW,2013-02-02 01:32:00,
2013-02-01 20:37:00,47.0,35.0,30.29,NNW,338,0.0,0.0,63,0.00,,,0.00,WUHU216HW,2013-02-02 01:37:00,
2013-02-01 20:42:00,46.6,34.7,30.29,East,90,0.0,0.4,63,0.00,,,0.00,WUHU216HW,2013-02-02 01:42:00,
2013-02-01 20:47:00,46.8,34.8,30.29,NW,315,0.4,0.4,63,0.00,,,0.00,WUHU216HW,2013-02-02 01:47:00,
2013-02-01 20:52:00,46.6,35.5,30.29,NW,315,0.0,0.4,65,0.00,,,0.00,WUHU216HW,2013-02-02 01:52:00,
2013-02-01 20:57:00,46.1,34.9,30.29,NW,315,0.0,0.4,65,0.00,,,0.00,WUHU216HW,2013-02-02 01:57:00,
2013-02-01 21:02:00,46.1,34.9,30.30,NNW,338,0.0,0.0,65,0.00,,,0.00,WUHU216HW,2013-02-02 02:02:00,
2013-02-01 21:07:00,46.1,35.4,30.30,SSE,158,0.0,0.0,66,0.00,,,0.00,WUHU216HW,2013-02-02 02:07:00,
2013-02-01 21:12:00,46.4,35.6,30.30,SE,135,0.0,0.0,66,0.00,,,0.00,WUHU216HW,2013-02-02 02:12:00,
2013-02-01 21:17:00,46.4,35.6,30.30,WSW,248,0.0,0.4,66,0.00,,,0.00,WUHU216HW,2013-02-02 02:17:00,
2013-02-01 21:22:00,46.4,35.3,30.30,SE,135,0.0,0.4,65,0.00,,,0.00,WUHU216HW,2013-02-02 02:22:00,
2013-02-01 21:27:00,46.4,35.3,30.30,SSW,203,0.0,0.0,65,0.00,,,0.00,WUHU216HW,2013-02-02 02:27:00,
2013-02-01 21:32:00,45.9,35.2,30.30,SSW,203,0.2,0.2,66,0.00,,,0.00,WUHU216HW,2013-02-02 02:32:00,
2013-02-01 21:37:00,45.4,35.0,30.30,SSW,203,0.0,0.2,67,0.00,,,0.00,WUHU216HW,2013-02-02 02:37:00,
2013-02-01 21:42:00,45.0,34.7,30.30,SSW,203,0.0,0.2,67,0.00,,,0.00,WUHU216HW,2013-02-02 02:42:00,
2013-02-01 21:47:00,44.5,34.6,30.30,SSW,203,0.0,0.0,68,0.00,,,0.00,WUHU216HW,2013-02-02 02:47:00,
2013-02-01 21:52:00,44.3,34.4,30.30,South,180,0.0,0.0,68,0.00,,,0.00,WUHU216HW,2013-02-02 02:52:00,
2013-02-01 21:57:00,44.3,34.4,30.30,North,0,0.0,0.0,68,0.00,,,0.00,WUHU216HW,2013-02-02 02:57:00,
2013-02-01 22:02:00,44.1,34.2,30.30,NNW,338,0.0,0.4,68,0.00,,,0.00,WUHU216HW,2013-02-02 03:02:00,
2013-02-01 22:07:00,44.3,34.4,30.30,NNW,338,0.0,0.4,68,0.00,,,0.00,WUHU216HW,2013-02-02 03:07:00,
2013-02-01 22:12:00,44.3,33.6,30.31,NNW,338,0.0,0.2,66,0.00,,,0.00,WUHU216HW,2013-02-02 03:12:00,
2013-02-01 22:17:00,44.5,33.4,30.31,North,0,0.0,0.4,65,0.00,,,0.00,WUHU216HW,2013-02-02 03:17:00,
2013-02-01 22:22:00,44.6,33.2,30.31,NNW,338,0.0,0.4,64,0.00,,,0.00,WUHU216HW,2013-02-02 03:22:00,
2013-02-01 22:27:00,44.6,32.9,30.31,NNW,338,0.0,0.7,63,0.00,,,0.00,WUHU216HW,2013-02-02 03:27:00,
2013-02-01 22:32:00,44.8,32.6,30.31,NNW,338,0.2,0.7,62,0.00,,,0.00,WUHU216HW,2013-02-02 03:32:00,
2013-02-01 22:37:00,45.0,32.1,30.31,North,0,0.0,0.2,60,0.00,,,0.00,WUHU216HW,2013-02-02 03:37:00,
2013-02-01 22:42:00,45.2,31.7,30.31,NNW,338,0.2,0.2,59,0.00,,,0.00,WUHU216HW,2013-02-02 03:42:00,
2013-02-01 22:47:00,45.2,31.2,30.31,NNW,338,0.0,0.4,58,0.00,,,0.00,WUHU216HW,2013-02-02 03:47:00,
2013-02-01 22:52:00,45.4,31.0,30.31,NNE,23,0.0,0.9,57,0.00,,,0.00,WUHU216HW,2013-02-02 03:52:00,
2013-02-01 22:57:00,45.4,31.0,30.31,NNW,338,0.4,0.9,57,0.00,,,0.00,WUHU216HW,2013-02-02 03:57:00,
2013-02-01 23:02:00,45.4,30.5,30.31,NNW,338,0.0,0.7,56,0.00,,,0.00,WUHU216HW,2013-02-02 04:02:00,
2013-02-01 23:07:00,45.4,30.5,30.31,SSW,203,0.2,0.7,56,0.00,,,0.00,WUHU216HW,2013-02-02 04:07:00,
2013-02-01 23:12:00,45.4,30.1,30.31,North,0,0.0,0.7,55,0.00,,,0.00,WUHU216HW,2013-02-02 04:12:00,
2013-02-01 23:17:00,45.5,30.2,30.31,NNW,338,0.2,0.7,55,0.00,,,0.00,WUHU216HW,2013-02-02 04:17:00,
2013-02-01 23:22:00,45.5,30.2,30.31,North,0,0.0,0.7,55,0.00,,,0.00,WUHU216HW,2013-02-02 04:22:00,
2013-02-01 23:27:00,45.5,30.2,30.31,NNW,338,0.0,0.4,55,0.00,,,0.00,WUHU216HW,2013-02-02 04:27:00,
2013-02-01 23:32:00,45.5,30.2,30.31,North,0,0.0,0.4,55,0.00,,,0.00,WUHU216HW,2013-02-02 04:32:00,
2013-02-01 23:37:00,45.4,30.5,30.31,NNW,338,0.0,0.2,56,0.00,,,0.00,WUHU216HW,2013-02-02 04:37:00,
2013-02-01 23:42:00,45.2,30.3,30.31,North,0,0.0,0.4,56,0.00,,,0.00,WUHU216HW,2013-02-02 04:42:00,
2013-02-01 23:47:00,45.0,30.7,30.31,North,0,0.0,0.4,57,0.00,,,0.00,WUHU216HW,2013-02-02 04:47:00,
2013-02-01 23:52:00,45.0,30.7,30.31,NNW,338,0.2,0.9,57,0.00,,,0.00,WUHU216HW,2013-02-02 04:52:00,
2013-02-01 23:57:00,45.0,30.7,30.32,North,0,0.2,0.9,57,0.00,,,0.00,WUHU216HW,2013-02-02 04:57:00,